createdAt,value
2023-01-19T00:00:27.441Z,27.45
2023-01-19T00:03:02.483Z,28.80
2023-01-19T00:05:31.275Z,28.80
2023-01-19T00:08:00.027Z,27.60
2023-01-19T00:10:34.413Z,27.02
2023-01-19T00:13:02.502Z,29.27
2023-01-19T00:15:36.397Z,27.02
2023-01-19T00:18:03.612Z,28.83
2023-01-19T00:20:37.423Z,28.02
2023-01-19T00:23:05.590Z,29.17
2023-01-19T00:25:39.393Z,28.00
2023-01-19T00:28:06.613Z,29.05
2023-01-19T00:30:40.409Z,28.70
2023-01-19T00:33:14.181Z,30.05
2023-01-19T00:35:42.415Z,29.75
2023-01-19T00:38:17.403Z,31.65
2023-01-19T00:40:44.367Z,31.15
2023-01-19T00:43:18.250Z,31.50
2023-01-19T00:45:46.328Z,31.58
2023-01-19T00:48:22.724Z,31.15
2023-01-19T00:50:50.358Z,33.00
2023-01-19T00:53:17.851Z,29.60
2023-01-19T00:55:52.188Z,30.67
2023-01-19T00:58:27.088Z,29.35
2023-01-19T01:00:55.253Z,27.80
2023-01-19T01:03:29.487Z,29.42
2023-01-19T01:05:56.409Z,30.30
2023-01-19T01:08:37.427Z,29.75
2023-01-19T01:11:04.627Z,30.17
2023-01-19T01:13:38.424Z,33.10
2023-01-19T01:16:06.987Z,31.20
2023-01-19T01:18:40.440Z,30.00
2023-01-19T01:21:07.803Z,28.95
2023-01-19T01:23:41.924Z,28.50
2023-01-19T01:26:08.837Z,30.23
2023-01-19T01:28:42.504Z,29.65
2023-01-19T01:31:15.602Z,29.15
2023-01-19T01:33:42.541Z,29.05
2023-01-19T01:36:17.446Z,27.55
2023-01-19T01:38:44.657Z,29.15
2023-01-19T01:41:19.418Z,26.10
2023-01-19T01:43:51.275Z,27.40
2023-01-19T01:46:18.359Z,27.52
2023-01-19T01:49:04.427Z,26.10
2023-01-19T01:51:51.344Z,27.75
2023-01-19T01:54:32.506Z,26.85
2023-01-19T01:57:04.527Z,28.33
2023-01-19T01:59:41.430Z,29.30
2023-01-19T02:02:15.715Z,28.55
2023-01-19T02:04:59.425Z,27.17
2023-01-19T02:07:59.942Z,26.98
2023-01-19T02:10:33.500Z,27.50
2023-01-19T02:13:00.871Z,28.70
2023-01-19T02:15:27.972Z,27.80
2023-01-19T02:18:01.432Z,27.27
2023-01-19T02:20:28.462Z,26.45
2023-01-19T02:22:55.773Z,23.88
2023-01-19T02:25:29.496Z,25.33
2023-01-19T02:28:02.504Z,24.02
2023-01-19T02:30:29.523Z,24.60
2023-01-19T02:32:56.512Z,24.90
2023-01-19T02:35:29.465Z,25.20
2023-01-19T02:37:56.449Z,23.20
2023-01-19T02:40:29.450Z,23.20
2023-01-19T02:42:58.534Z,22.40
2023-01-19T02:45:32.568Z,21.20
2023-01-19T02:47:59.503Z,21.33
2023-01-19T02:50:50.500Z,21.05
2023-01-19T02:54:00.475Z,21.90
2023-01-19T02:56:54.765Z,20.95
2023-01-19T02:59:49.510Z,21.23
2023-01-19T03:02:59.829Z,20.35
2023-01-19T03:06:08.559Z,20.42
2023-01-19T03:08:47.876Z,19.65
2023-01-19T03:11:21.479Z,19.77
2023-01-19T03:13:54.636Z,19.58
2023-01-19T03:16:48.655Z,19.40
2023-01-19T03:19:39.499Z,20.10
2023-01-19T03:22:12.969Z,19.65
2023-01-19T03:24:49.473Z,19.58
2023-01-19T03:27:40.739Z,20.88
2023-01-19T03:30:23.493Z,20.02
2023-01-19T03:32:57.135Z,20.25
2023-01-19T03:35:31.528Z,18.45
2023-01-19T03:37:58.414Z,19.48
2023-01-19T03:40:34.503Z,19.48
2023-01-19T03:43:01.857Z,20.80
2023-01-19T03:45:35.519Z,20.02
2023-01-19T03:48:02.411Z,19.98
2023-01-19T03:50:37.636Z,20.17
2023-01-19T03:53:18.938Z,19.85
2023-01-19T03:55:47.253Z,17.42
2023-01-19T03:58:21.540Z,17.83
2023-01-19T04:00:48.489Z,18.70
2023-01-19T04:03:23.519Z,17.83
2023-01-19T04:05:56.495Z,16.60
2023-01-19T04:08:29.528Z,16.92
2023-01-19T04:10:58.327Z,17.90
2023-01-19T04:13:25.287Z,17.42
2023-01-19T04:15:58.522Z,17.63
2023-01-19T04:18:25.586Z,17.80
2023-01-19T04:20:58.487Z,18.42
2023-01-19T04:23:25.365Z,19.15
2023-01-19T04:26:13.548Z,19.58
2023-01-19T04:28:40.460Z,17.73
2023-01-19T04:31:07.579Z,17.85
2023-01-19T04:33:41.517Z,17.83
2023-01-19T04:36:08.608Z,17.45
2023-01-19T04:38:42.480Z,19.00
2023-01-19T04:41:15.532Z,17.73
2023-01-19T04:43:42.397Z,17.58
2023-01-19T04:46:09.334Z,18.17
2023-01-19T04:48:42.532Z,17.60
2023-01-19T04:51:15.531Z,17.75
2023-01-19T04:53:42.619Z,17.27
2023-01-19T04:56:16.514Z,18.70
2023-01-19T04:58:49.533Z,21.88
2023-01-19T05:01:16.508Z,21.73
2023-01-19T05:03:50.546Z,18.13
2023-01-19T05:06:23.510Z,18.33
2023-01-19T05:08:50.438Z,19.20
2023-01-19T05:11:17.392Z,18.88
2023-01-19T05:13:51.551Z,19.95
2023-01-19T05:16:24.555Z,20.60
2023-01-19T05:18:51.516Z,21.33
2023-01-19T05:21:18.556Z,19.38
2023-01-19T05:23:51.542Z,19.17
2023-01-19T05:26:24.533Z,18.35
2023-01-19T05:28:51.494Z,17.90
2023-01-19T05:31:24.606Z,17.17
2023-01-19T05:33:51.629Z,17.08
2023-01-19T05:36:25.558Z,18.55
2023-01-19T05:38:58.588Z,17.95
2023-01-19T05:41:25.505Z,16.92
2023-01-19T05:43:52.400Z,18.25
2023-01-19T05:46:25.588Z,19.05
2023-01-19T05:48:52.483Z,19.88
2023-01-19T05:51:19.500Z,19.45
2023-01-19T05:53:52.563Z,19.23
2023-01-19T05:56:19.486Z,19.63
2023-01-19T05:58:52.592Z,20.00
2023-01-19T06:01:19.519Z,19.08
2023-01-19T06:03:53.571Z,19.45
2023-01-19T06:06:20.542Z,21.73
2023-01-19T06:08:53.557Z,29.50
2023-01-19T06:11:20.577Z,22.20
2023-01-19T06:13:53.610Z,21.85
2023-01-19T06:16:20.601Z,20.38
2023-01-19T06:18:54.550Z,19.95
2023-01-19T06:21:21.453Z,21.58
2023-01-19T06:23:48.409Z,21.00
2023-01-19T06:26:21.647Z,20.60
2023-01-19T06:28:48.645Z,20.17
2023-01-19T06:31:22.744Z,25.77
2023-01-19T06:33:49.733Z,21.73
2023-01-19T06:36:16.642Z,20.85
2023-01-19T06:38:49.559Z,19.67
2023-01-19T06:41:16.480Z,19.75
2023-01-19T06:43:49.585Z,30.30
2023-01-19T06:46:23.326Z,24.80
2023-01-19T06:48:56.565Z,21.42
2023-01-19T06:51:23.879Z,20.70
2023-01-19T06:53:50.806Z,20.92
2023-01-19T06:56:24.582Z,25.67
2023-01-19T06:58:51.646Z,25.83
2023-01-19T07:01:25.685Z,23.00
2023-01-19T07:03:52.756Z,22.65
2023-01-19T07:06:26.625Z,20.85
2023-01-19T07:09:00.599Z,19.35
2023-01-19T07:11:34.637Z,24.73
2023-01-19T07:14:08.657Z,24.13
2023-01-19T07:16:42.664Z,29.70
2023-01-19T07:19:13.478Z,28.67
2023-01-19T07:21:57.912Z,29.27
2023-01-19T07:25:04.503Z,28.55
2023-01-19T07:27:47.336Z,32.40
2023-01-19T07:30:14.990Z,29.15
2023-01-19T07:32:49.656Z,33.65
2023-01-19T07:35:19.790Z,32.30
2023-01-19T07:37:55.906Z,30.98
2023-01-19T07:40:24.059Z,33.90
2023-01-19T07:43:02.255Z,36.63
2023-01-19T07:45:51.471Z,31.80
2023-01-19T07:48:24.881Z,31.45
2023-01-19T07:50:56.113Z,34.45
2023-01-19T07:53:23.190Z,36.40
2023-01-19T07:56:01.695Z,38.47
2023-01-19T07:58:28.855Z,38.70
2023-01-19T08:01:02.739Z,37.03
2023-01-19T08:03:29.946Z,35.45
2023-01-19T08:06:03.687Z,34.67
2023-01-19T08:08:34.237Z,34.70
2023-01-19T08:11:07.665Z,32.83
2023-01-19T08:13:34.604Z,29.02
2023-01-19T08:16:01.655Z,24.73
2023-01-19T08:18:35.636Z,25.10
2023-01-19T08:21:02.729Z,25.40
2023-01-19T08:23:29.861Z,22.63
2023-01-19T08:26:03.690Z,22.63
2023-01-19T08:28:30.732Z,21.10
2023-01-19T08:31:18.681Z,21.23
2023-01-19T08:33:47.320Z,20.95
2023-01-19T08:36:20.740Z,20.48
2023-01-19T08:38:54.656Z,20.30
2023-01-19T08:41:21.954Z,20.48
2023-01-19T08:43:51.536Z,23.35
2023-01-19T08:46:25.740Z,24.17
2023-01-19T08:48:52.858Z,26.30
2023-01-19T08:51:26.698Z,28.60
2023-01-19T08:53:53.624Z,29.00
2023-01-19T08:56:27.654Z,25.35
2023-01-19T08:59:08.115Z,25.40
2023-01-19T09:01:42.723Z,22.42
2023-01-19T09:04:09.731Z,22.95
2023-01-19T09:06:36.736Z,23.33
2023-01-19T09:09:10.650Z,22.20
2023-01-19T09:11:37.692Z,21.58
2023-01-19T09:14:10.623Z,20.38
2023-01-19T09:16:37.658Z,20.80
2023-01-19T09:19:10.714Z,20.27
2023-01-19T09:21:37.766Z,21.50
2023-01-19T09:24:11.704Z,21.20
2023-01-19T09:26:44.665Z,21.17
2023-01-19T09:29:17.733Z,21.75
2023-01-19T09:31:51.723Z,21.48
2023-01-19T09:34:18.645Z,22.63
2023-01-19T09:36:47.047Z,22.90
2023-01-19T09:39:20.611Z,21.80
2023-01-19T09:41:51.504Z,22.05
2023-01-19T09:44:38.628Z,23.48
2023-01-19T09:47:17.493Z,22.30
2023-01-19T09:49:53.639Z,23.42
2023-01-19T09:52:20.537Z,23.70
2023-01-19T09:55:03.663Z,21.50
2023-01-19T09:57:30.646Z,23.08
2023-01-19T09:59:57.632Z,20.50
2023-01-19T10:03:04.021Z,21.08
2023-01-19T10:05:49.709Z,20.30
2023-01-19T10:08:16.669Z,21.17
2023-01-19T10:10:54.731Z,20.10
2023-01-19T10:13:48.922Z,19.08
2023-01-19T10:16:57.720Z,19.25
2023-01-19T10:19:46.360Z,15.82
2023-01-19T10:22:39.672Z,16.48
2023-01-19T10:25:15.866Z,16.25
2023-01-19T10:27:49.657Z,17.60
2023-01-19T10:30:31.653Z,16.65
2023-01-19T10:32:59.206Z,17.45
2023-01-19T10:35:32.704Z,17.48
2023-01-19T10:38:01.126Z,16.98
2023-01-19T10:40:52.762Z,14.77
2023-01-19T10:43:35.816Z,17.02
2023-01-19T10:46:13.683Z,17.83
2023-01-19T10:48:40.898Z,25.23
2023-01-19T10:51:15.685Z,21.13
2023-01-19T10:54:05.743Z,16.92
2023-01-19T10:56:36.428Z,15.15
2023-01-19T10:59:12.709Z,17.20
2023-01-19T11:01:39.784Z,15.95
2023-01-19T11:04:28.742Z,15.65
2023-01-19T11:07:43.894Z,14.82
2023-01-19T11:10:23.722Z,18.17
2023-01-19T11:13:12.128Z,18.95
2023-01-19T11:15:57.766Z,17.75
2023-01-19T11:18:33.818Z,17.60
2023-01-19T11:21:19.715Z,17.73
2023-01-19T11:23:51.248Z,18.17
2023-01-19T11:26:55.756Z,16.70
2023-01-19T11:29:26.470Z,15.10
2023-01-19T11:32:00.722Z,13.32
2023-01-19T11:34:33.474Z,12.80
2023-01-19T11:37:29.691Z,11.98
2023-01-19T11:39:58.977Z,12.73
2023-01-19T11:42:32.809Z,13.30
2023-01-19T11:45:10.447Z,12.30
2023-01-19T11:47:55.725Z,11.00
2023-01-19T11:50:39.167Z,11.15
2023-01-19T11:53:30.821Z,9.45
2023-01-19T11:56:08.801Z,9.40
2023-01-19T11:58:49.923Z,9.88
2023-01-19T12:01:40.676Z,10.55
2023-01-19T12:04:09.123Z,10.07
2023-01-19T12:06:45.770Z,11.82
2023-01-19T12:09:28.698Z,12.27
2023-01-19T12:12:40.735Z,14.20
2023-01-19T12:15:34.910Z,14.43
2023-01-19T12:18:08.680Z,13.48
2023-01-19T12:20:42.147Z,14.80
2023-01-19T12:23:18.767Z,14.27
2023-01-19T12:26:24.306Z,14.05
2023-01-19T12:28:58.723Z,14.05
2023-01-19T12:31:25.750Z,15.10
2023-01-19T12:34:02.032Z,12.57
2023-01-19T12:36:32.199Z,11.32
2023-01-19T12:39:18.730Z,10.38
2023-01-19T12:41:45.932Z,10.18
2023-01-19T12:44:19.762Z,10.32
2023-01-19T12:47:24.779Z,10.23
2023-01-19T12:50:02.743Z,11.15
2023-01-19T12:52:53.791Z,9.25
2023-01-19T12:55:24.821Z,9.48
2023-01-19T12:58:28.762Z,9.48
2023-01-19T13:01:24.823Z,7.38
2023-01-19T13:04:05.470Z,6.15
2023-01-19T13:06:54.709Z,7.20
2023-01-19T13:09:41.765Z,6.93
2023-01-19T13:12:14.940Z,5.55
2023-01-19T13:14:49.739Z,6.43
2023-01-19T13:17:59.754Z,5.85
2023-01-19T13:20:31.653Z,7.15
2023-01-19T13:23:26.816Z,6.05
2023-01-19T13:26:05.341Z,7.95
2023-01-19T13:28:48.690Z,7.95
2023-01-19T13:31:15.866Z,8.40
2023-01-19T13:33:57.717Z,7.57
2023-01-19T13:36:30.707Z,8.70
2023-01-19T13:39:06.783Z,7.75
2023-01-19T13:41:41.833Z,7.30
2023-01-19T13:44:41.736Z,7.75
2023-01-19T13:47:16.725Z,6.90
2023-01-19T13:49:50.017Z,6.07
2023-01-19T13:52:22.547Z,6.05
2023-01-19T13:55:03.783Z,6.60
2023-01-19T13:57:39.625Z,5.88
2023-01-19T14:00:18.812Z,7.07
2023-01-19T14:03:02.465Z,6.20
2023-01-19T14:05:40.889Z,7.20
2023-01-19T14:08:10.827Z,6.38
2023-01-19T14:11:07.791Z,6.88
2023-01-19T14:13:36.088Z,5.95
2023-01-19T14:16:21.799Z,6.15
2023-01-19T14:19:01.202Z,6.07
2023-01-19T14:21:45.777Z,7.40
2023-01-19T14:24:19.571Z,6.18
2023-01-19T14:26:54.847Z,7.32
2023-01-19T14:29:38.812Z,6.43
2023-01-19T14:32:30.731Z,6.00
2023-01-19T14:35:03.778Z,5.25
2023-01-19T14:37:39.846Z,6.60
2023-01-19T14:40:12.583Z,5.28
2023-01-19T14:42:59.798Z,5.50
2023-01-19T14:45:37.405Z,4.90
2023-01-19T14:48:25.821Z,3.10
2023-01-19T14:51:02.699Z,2.67
2023-01-19T14:53:44.814Z,2.72
2023-01-19T14:56:11.823Z,1.98
2023-01-19T14:58:44.855Z,2.20
2023-01-19T15:01:11.866Z,1.77
2023-01-19T15:03:44.815Z,1.75
2023-01-19T15:06:27.812Z,1.50
2023-01-19T15:09:01.773Z,1.58
2023-01-19T15:11:41.820Z,3.75
2023-01-19T15:14:19.863Z,1.90
2023-01-19T15:16:46.830Z,2.08
2023-01-19T15:19:21.794Z,2.10
2023-01-19T15:21:48.753Z,1.88
2023-01-19T15:24:21.975Z,2.10
2023-01-19T15:26:55.808Z,1.10
2023-01-19T15:29:24.901Z,1.70
2023-01-19T15:31:58.798Z,2.00
2023-01-19T15:34:31.779Z,2.17
2023-01-19T15:36:58.736Z,2.13
2023-01-19T15:39:25.671Z,2.03
2023-01-19T15:41:59.816Z,2.22
2023-01-19T15:44:32.807Z,2.53
2023-01-19T15:46:59.674Z,2.95
2023-01-19T15:49:32.806Z,4.13
2023-01-19T15:52:02.127Z,6.30
2023-01-19T15:54:29.108Z,3.20
2023-01-19T15:57:03.042Z,2.38
2023-01-19T15:59:30.017Z,1.88
2023-01-19T16:01:57.123Z,1.83
2023-01-19T16:04:30.763Z,1.67
2023-01-19T16:06:57.632Z,4.00
2023-01-19T16:09:30.931Z,4.88
2023-01-19T16:11:57.942Z,5.68
2023-01-19T16:14:31.823Z,4.70
2023-01-19T16:17:04.787Z,4.60
2023-01-19T16:19:31.685Z,4.30
2023-01-19T16:22:04.974Z,3.92
2023-01-19T16:24:38.815Z,3.78
2023-01-19T16:27:11.888Z,3.70
2023-01-19T16:29:44.818Z,3.63
2023-01-19T16:32:11.703Z,3.55
2023-01-19T16:34:38.791Z,4.43
2023-01-19T16:37:11.844Z,3.97
2023-01-19T16:39:38.827Z,4.90
2023-01-19T16:42:11.800Z,6.18
2023-01-19T16:44:38.814Z,8.98
2023-01-19T16:47:11.846Z,19.98
2023-01-19T16:49:38.755Z,22.73
2023-01-19T16:52:11.849Z,23.83
2023-01-19T16:54:40.814Z,25.75
2023-01-19T16:57:13.838Z,26.17
2023-01-19T16:59:40.853Z,22.75
2023-01-19T17:02:13.973Z,20.00
2023-01-19T17:04:40.896Z,20.27
2023-01-19T17:07:13.836Z,19.08
2023-01-19T17:09:40.838Z,22.42
2023-01-19T17:15:16.109Z,33.08
2023-01-19T17:17:49.940Z,29.25
2023-01-19T17:20:17.131Z,23.88
2023-01-19T17:22:50.923Z,19.02
2023-01-19T17:25:17.893Z,12.65
2023-01-19T17:27:50.871Z,9.13
2023-01-19T17:30:18.206Z,8.85
2023-01-19T17:32:46.404Z,8.82
2023-01-19T17:35:19.851Z,12.43
2023-01-19T17:37:46.753Z,12.27
2023-01-19T17:40:19.911Z,12.50
2023-01-19T17:42:46.927Z,14.48
2023-01-19T17:45:20.893Z,13.15
2023-01-19T17:47:50.829Z,11.40
2023-01-19T17:50:24.878Z,10.23
2023-01-19T17:52:51.807Z,7.28
2023-01-19T17:55:24.930Z,5.85
2023-01-19T17:57:51.845Z,5.03
2023-01-19T18:00:25.881Z,5.00
2023-01-19T18:02:52.895Z,3.90
2023-01-19T18:05:26.874Z,3.25
2023-01-19T18:07:53.812Z,3.85
2023-01-19T18:10:26.876Z,3.38
2023-01-19T18:12:53.783Z,3.33
2023-01-19T18:15:20.813Z,4.47
2023-01-19T18:17:53.889Z,3.60
2023-01-19T18:20:20.811Z,3.08
2023-01-19T18:22:53.921Z,3.22
2023-01-19T18:25:20.879Z,2.85
2023-01-19T18:27:48.105Z,2.83
2023-01-19T18:30:22.953Z,3.55
2023-01-19T18:32:49.873Z,3.17
2023-01-19T18:35:23.898Z,2.72
2023-01-19T18:37:50.813Z,2.70
2023-01-19T18:40:24.910Z,2.30
2023-01-19T18:42:51.808Z,2.45
2023-01-19T18:45:24.898Z,3.03
2023-01-19T18:47:51.817Z,3.03
2023-01-19T18:50:25.967Z,4.00
2023-01-19T18:52:52.963Z,4.07
2023-01-19T18:55:19.901Z,4.75
2023-01-19T18:57:52.868Z,5.43
2023-01-19T19:00:20.293Z,6.40
2023-01-19T19:02:53.874Z,6.20
2023-01-19T19:05:20.779Z,5.95
2023-01-19T19:07:53.883Z,6.95
2023-01-19T19:10:20.879Z,6.60
2023-01-19T19:12:53.898Z,6.95
2023-01-19T19:15:21.326Z,7.35
2023-01-19T19:17:54.918Z,6.57
2023-01-19T19:20:27.916Z,8.15
2023-01-19T19:23:01.643Z,8.80
2023-01-19T19:25:34.913Z,9.45
2023-01-19T19:28:01.838Z,11.07
2023-01-19T19:30:28.753Z,11.80
2023-01-19T19:33:02.935Z,14.60
2023-01-19T19:35:29.856Z,15.48
2023-01-19T19:38:02.924Z,13.50
2023-01-19T19:40:29.878Z,13.82
2023-01-19T19:43:02.905Z,14.15
2023-01-19T19:45:29.856Z,15.05
2023-01-19T19:48:02.901Z,15.57
2023-01-19T19:50:29.828Z,14.90
2023-01-19T19:53:02.869Z,15.73
2023-01-19T19:55:35.925Z,15.68
2023-01-19T19:58:10.192Z,15.38
2023-01-19T20:00:37.148Z,13.82
2023-01-19T20:03:10.932Z,13.65
2023-01-19T20:05:37.885Z,13.68
2023-01-19T20:08:04.967Z,14.85
2023-01-19T20:10:39.962Z,15.68
2023-01-19T20:13:09.037Z,15.73
2023-01-19T20:15:43.949Z,15.27
2023-01-19T20:18:10.963Z,16.33
2023-01-19T20:20:43.920Z,16.55
2023-01-19T20:23:10.837Z,16.73
2023-01-19T20:25:45.930Z,16.85
2023-01-19T20:28:18.957Z,17.48
2023-01-19T20:30:45.928Z,17.08
2023-01-19T20:33:12.868Z,18.25
2023-01-19T20:35:46.001Z,15.80
2023-01-19T20:38:12.984Z,15.77
2023-01-19T20:40:45.998Z,16.30
2023-01-19T20:43:12.920Z,16.27
2023-01-19T20:45:46.104Z,19.00
2023-01-19T20:48:13.630Z,19.83
2023-01-19T20:50:46.906Z,18.15
2023-01-19T20:53:20.028Z,18.73
2023-01-19T20:55:54.060Z,18.13
2023-01-19T20:58:22.483Z,20.33
2023-01-19T21:00:57.053Z,17.52
2023-01-19T21:03:24.410Z,16.20
2023-01-19T21:05:51.597Z,14.38
2023-01-19T21:08:25.056Z,25.52
2023-01-19T21:10:56.768Z,26.73
2023-01-19T21:13:31.020Z,22.02
2023-01-19T21:15:58.700Z,17.48
2023-01-19T21:18:33.325Z,15.70
2023-01-19T21:21:00.341Z,13.88
2023-01-19T21:23:27.496Z,12.80
2023-01-19T21:26:02.930Z,12.43
2023-01-19T21:28:31.169Z,12.88
2023-01-19T21:30:58.236Z,12.68
2023-01-19T21:33:31.957Z,14.90
2023-01-19T21:35:59.025Z,10.88
2023-01-19T21:38:36.437Z,8.30
2023-01-19T21:41:10.668Z,8.88
2023-01-19T21:43:44.012Z,8.90
2023-01-19T21:46:22.413Z,10.25
2023-01-19T21:48:55.980Z,9.38
2023-01-19T21:51:23.041Z,10.73
2023-01-19T21:53:57.087Z,12.75
2023-01-19T21:56:24.158Z,14.85
2023-01-19T21:58:51.133Z,31.85
2023-01-19T22:01:25.284Z,41.60
2023-01-19T22:03:56.345Z,19.77
2023-01-19T22:06:30.037Z,15.10
2023-01-19T22:08:57.315Z,14.48
2023-01-19T22:11:24.333Z,12.15
2023-01-19T22:13:58.039Z,11.60
2023-01-19T22:16:25.326Z,12.40
2023-01-19T22:19:01.040Z,12.50
2023-01-19T22:21:34.848Z,11.30
2023-01-19T22:24:09.073Z,10.85
2023-01-19T22:26:43.102Z,9.70
2023-01-19T22:29:17.105Z,8.93
2023-01-19T22:31:44.170Z,8.70
2023-01-19T22:34:11.185Z,9.18
2023-01-19T22:36:45.047Z,15.65
2023-01-19T22:39:12.604Z,16.95
2023-01-19T22:41:48.980Z,14.38
2023-01-19T22:44:25.063Z,12.32
2023-01-19T22:47:02.018Z,11.52
2023-01-19T22:49:37.030Z,11.65
2023-01-19T22:52:04.126Z,11.68
2023-01-19T22:54:38.166Z,11.40
2023-01-19T22:57:05.145Z,10.73
2023-01-19T22:59:38.981Z,11.07
2023-01-19T23:02:06.057Z,13.38
2023-01-19T23:04:40.112Z,14.10
2023-01-19T23:07:07.119Z,14.77
2023-01-19T23:09:40.981Z,13.52
2023-01-19T23:12:07.960Z,13.88
2023-01-19T23:14:40.979Z,12.98
2023-01-19T23:17:07.946Z,16.67
2023-01-19T23:19:35.093Z,15.75
2023-01-19T23:22:09.002Z,15.73
2023-01-19T23:24:36.101Z,14.25
2023-01-19T23:27:09.982Z,13.07
2023-01-19T23:29:36.955Z,11.90
2023-01-19T23:32:11.119Z,13.27
2023-01-19T23:34:40.259Z,13.52
2023-01-19T23:37:07.339Z,14.07
2023-01-19T23:39:41.374Z,16.42
2023-01-19T23:42:09.307Z,18.30
2023-01-19T23:44:44.387Z,18.17
2023-01-19T23:47:11.267Z,15.48
2023-01-19T23:49:38.214Z,16.67
2023-01-19T23:52:13.610Z,16.73
2023-01-19T23:54:41.535Z,13.38
2023-01-19T23:57:15.279Z,14.02
2023-01-19T23:59:42.503Z,14.10
